createdAt,value
2022-10-19T00:01:18.741Z,1.70
2022-10-19T00:03:55.343Z,1.40
2022-10-19T00:06:31.151Z,1.60
2022-10-19T00:09:15.294Z,1.70
2022-10-19T00:11:51.307Z,2.10
2022-10-19T00:14:26.233Z,2.30
2022-10-19T00:17:01.099Z,2.70
2022-10-19T00:19:35.406Z,3.00
2022-10-19T00:22:10.342Z,2.80
2022-10-19T00:24:44.860Z,2.50
2022-10-19T00:27:17.684Z,2.90
2022-10-19T00:29:49.893Z,2.80
2022-10-19T00:32:23.165Z,2.50
2022-10-19T00:34:54.187Z,2.70
2022-10-19T00:37:30.946Z,3.80
2022-10-19T00:40:08.915Z,2.80
2022-10-19T00:42:43.698Z,4.40
2022-10-19T00:45:17.650Z,2.80
2022-10-19T00:47:48.793Z,2.90
2022-10-19T00:50:19.932Z,3.30
2022-10-19T00:52:50.911Z,3.50
2022-10-19T00:55:22.144Z,3.50
2022-10-19T00:57:53.172Z,3.30
2022-10-19T01:00:23.673Z,3.90
2022-10-19T01:02:54.559Z,4.10
2022-10-19T01:05:24.938Z,4.00
2022-10-19T01:07:55.502Z,3.80
2022-10-19T01:10:29.076Z,4.60
2022-10-19T01:13:07.342Z,4.20
2022-10-19T01:15:40.961Z,4.70
2022-10-19T01:18:15.813Z,4.80
2022-10-19T01:20:58.520Z,5.20
2022-10-19T01:23:42.496Z,4.70
2022-10-19T01:26:18.875Z,5.00
2022-10-19T01:28:56.987Z,4.30
2022-10-19T01:31:29.297Z,4.50
2022-10-19T01:34:06.195Z,4.10
2022-10-19T01:36:40.528Z,4.50
2022-10-19T01:39:13.189Z,5.30
2022-10-19T01:41:46.984Z,4.90
2022-10-19T01:44:20.328Z,4.90
2022-10-19T01:46:52.876Z,4.90
2022-10-19T01:49:26.319Z,5.20
2022-10-19T01:54:27.965Z,5.00
2022-10-19T01:56:59.812Z,5.70
2022-10-19T01:59:31.643Z,5.20
2022-10-19T02:02:04.191Z,6.10
2022-10-19T02:04:35.619Z,6.00
2022-10-19T02:07:07.141Z,5.40
2022-10-19T02:09:37.856Z,6.00
2022-10-19T02:12:10.567Z,6.10
2022-10-19T02:14:44.234Z,5.80
2022-10-19T02:17:16.500Z,5.90
2022-10-19T02:19:47.546Z,6.50
2022-10-19T02:22:17.828Z,6.50
2022-10-19T02:24:49.244Z,6.20
2022-10-19T02:27:20.140Z,5.40
2022-10-19T02:29:51.971Z,6.50
2022-10-19T02:32:22.533Z,6.10
2022-10-19T02:34:54.093Z,6.50
2022-10-19T02:37:25.790Z,5.80
2022-10-19T02:39:56.700Z,5.90
2022-10-19T02:42:29.969Z,7.30
2022-10-19T02:45:03.164Z,6.90
2022-10-19T02:47:36.796Z,7.60
2022-10-19T02:50:09.271Z,7.10
2022-10-19T02:52:39.915Z,8.00
2022-10-19T02:55:11.350Z,7.90
2022-10-19T02:57:41.853Z,7.60
2022-10-19T03:00:13.721Z,7.30
2022-10-19T03:02:44.236Z,8.20
2022-10-19T03:05:15.502Z,8.10
2022-10-19T03:07:45.917Z,7.40
2022-10-19T03:10:17.073Z,7.60
2022-10-19T03:12:47.481Z,7.50
2022-10-19T03:15:18.647Z,7.50
2022-10-19T03:17:49.250Z,8.20
2022-10-19T03:20:20.832Z,8.80
2022-10-19T03:25:27.632Z,9.00
2022-10-19T03:27:58.360Z,9.00
2022-10-19T03:30:29.740Z,9.10
2022-10-19T03:33:00.409Z,9.20
2022-10-19T03:35:31.145Z,9.90
2022-10-19T03:38:01.907Z,9.20
2022-10-19T03:40:33.144Z,8.60
2022-10-19T03:43:03.968Z,9.60
2022-10-19T03:45:34.607Z,10.90
2022-10-19T03:48:05.820Z,10.20
2022-10-19T03:50:36.278Z,10.50
2022-10-19T03:53:07.033Z,10.60
2022-10-19T03:55:37.647Z,11.20
2022-10-19T03:58:08.679Z,11.70
2022-10-19T04:00:40.924Z,12.20
2022-10-19T04:03:12.106Z,12.80
2022-10-19T04:05:42.647Z,12.60
2022-10-19T04:08:13.310Z,12.60
2022-10-19T04:10:43.756Z,13.60
2022-10-19T04:13:14.395Z,12.40
2022-10-19T04:15:45.055Z,13.90
2022-10-19T04:18:16.135Z,13.50
2022-10-19T04:20:49.537Z,13.70
2022-10-19T04:23:20.218Z,14.90
2022-10-19T04:25:50.720Z,13.80
2022-10-19T04:28:21.131Z,14.60
2022-10-19T04:30:51.570Z,14.10
2022-10-19T04:33:22.129Z,14.60
2022-10-19T04:35:52.494Z,15.10
2022-10-19T04:38:23.258Z,15.60
2022-10-19T04:40:53.865Z,15.40
2022-10-19T04:43:24.585Z,14.20
2022-10-19T04:45:55.157Z,13.80
